Weather at Ancona Falconara Airport

Public forecast

Using degrees Celsius for public forecast. Weather courtesy of forecast.io.

Current aviation weather report (METAR) for Ancona Falconara Airport

Retrieved 2020/12/03 12:20 UTC (18 minutes ago):

LIPY 031220Z AUTO 28005KT 9999 BKN014 08/07 Q1007

Aviation forecast (TAF) for Ancona Falconara Airport

Retrieved 2020/12/03 12:21 UTC (17 minutes ago):

TAF LIPY 031100Z 0312/0412 30007KT 8000 BKN020 BECMG 0403/0406 16015KT